Langston, OK (73050)

1:07 PM CDT on September 18, 2014 (GMT -0500)
Near Antelope Creek | Change Station
CLOSE
Current Station
Personal Weather Station
Location: Guthrie, OK
Elevation: 1109 ft
Nearby Weather Stations

Elev 1109 ft 35.91 °N, 97.35 °W | Updated 1 second ago

Partly Cloudy
Partly Cloudy
80.2 °F
Feels Like 83 °F
N
7.0
Wind Variable Wind from SSE
Gusts 14.0 mph

Today
High -- | Low -- °F
--% Chance of Precip.
Yesterday
High -- | Low -- °F
Precip. -- in
7:13 AM 7:31 PM
Waning Crescent, 25% visible
Pressure 29.94 in
Visibility 10.0 miles
Clouds Clear
Heat Index 83 °F
Dew Point 69 °F
Humidity 68%
Rainfall 0.43 in
Snow Depth Not available.
UV 9 out of 12
Pollen 10.20 out of 12
Air Quality Not available.
Flu Activity Not available.
METAR KGOK 181753Z AUTO 16014G22KT 10SM CLR 26/19 A2997 RMK AO2 SLP139 60015 T02610189 10261 20178 58003

More Conditions Fewer Conditions

Pressure 29.94 in
Visibility 10.0 miles
Clouds Clear
Heat Index 83 °F
Dew Point 69 °F
Humidity 68%
Rainfall 0.43 in
Snow Depth Not available.
UV 9 out of 12
Pollen 10.20 out of 12
Air Quality Not available.
Flu Activity Not available.
METAR KGOK 181753Z AUTO 16014G22KT 10SM CLR 26/19 A2997 RMK AO2 SLP139 60015 T02610189 10261 20178 58003

More Conditions Fewer Conditions

10-Day Weather Forecast

Almanac

Astronomy

Sep. 18, 2014 Rise Set
Actual Time 7:13 AM CDT 7:31 PM CDT
Civil Twilight 6:48 AM CDT 7:57 PM CDT
Nautical Twilight 6:18 AM CDT 8:27 PM CDT
Astronomical Twilight 5:47 AM CDT 8:57 PM CDT
Moon 2:14 AM CDT 4:16 PM CDT
Length of Visible Light 13h 09m
Length of Day
12h 17m
Tomorrow will be 2m 15s shorter.
Waning Crescent, 25% of the Moon is Illuminated
Today
Waning Crescent
Sep 24
New
Oct 1
First Quarter
Oct 8
Full
Oct 15
Last Quarter

Today's Extremes

State Highs State Lows

Community

WunderPhotos

Upload Photos

1,754,410 photos uploaded!

Nearby

Snow Depth

Station Depth Elevation
No new snow has been reported.

Earthquake Activity

City Distance Mag. Time & Date
Medford, Oklahoma 63 miles 3.0 5:28 AM CDT
2014-09-18
Perry, Oklahoma 17 miles 3.9 2:12 AM CDT
2014-09-18
Helena, Oklahoma 79 miles 2.8 4:01 PM CDT
2014-09-17
Perry, Oklahoma 16 miles 2.5 2:57 PM CDT
2014-09-17
Minimum magnitude displayed is 2.5.

Coastal Water Temperatures

Place Temperature
No Stations Reporting

Nearby Weather Stations